sensor_id;sensor_type;location;lat;lon;timestamp;P1;durP1;ratioP1;P2;durP2;ratioP2
20731;SDS011;10527;52.124;5.196;2022-08-24T00:01:51;3.95;;;2.67;;
20731;SDS011;10527;52.124;5.196;2022-08-24T00:04:18;2.60;;;2.00;;
20731;SDS011;10527;52.124;5.196;2022-08-24T00:06:45;3.10;;;2.15;;
20731;SDS011;10527;52.124;5.196;2022-08-24T00:09:12;4.25;;;2.30;;
20731;SDS011;10527;52.124;5.196;2022-08-24T00:11:39;2.42;;;2.08;;
20731;SDS011;10527;52.124;5.196;2022-08-24T00:14:05;2.60;;;2.35;;
20731;SDS011;10527;52.124;5.196;2022-08-24T00:16:33;4.80;;;2.70;;
20731;SDS011;10527;52.124;5.196;2022-08-24T00:19:01;3.13;;;2.08;;
20731;SDS011;10527;52.124;5.196;2022-08-24T00:21:29;2.42;;;2.13;;
20731;SDS011;10527;52.124;5.196;2022-08-24T00:23:56;2.47;;;1.98;;
20731;SDS011;10527;52.124;5.196;2022-08-24T00:26:29;3.17;;;2.50;;
20731;SDS011;10527;52.124;5.196;2022-08-24T00:28:56;4.75;;;2.50;;
20731;SDS011;10527;52.124;5.196;2022-08-24T00:31:24;3.28;;;2.45;;
20731;SDS011;10527;52.124;5.196;2022-08-24T00:33:51;2.95;;;2.17;;
20731;SDS011;10527;52.124;5.196;2022-08-24T00:36:22;2.97;;;2.72;;
20731;SDS011;10527;52.124;5.196;2022-08-24T00:38:49;3.40;;;2.20;;
20731;SDS011;10527;52.124;5.196;2022-08-24T00:41:16;3.60;;;2.45;;
20731;SDS011;10527;52.124;5.196;2022-08-24T00:43:51;3.00;;;2.55;;
20731;SDS011;10527;52.124;5.196;2022-08-24T00:49:07;2.78;;;2.25;;
20731;SDS011;10527;52.124;5.196;2022-08-24T00:51:55;4.63;;;2.40;;
20731;SDS011;10527;52.124;5.196;2022-08-24T00:54:30;3.80;;;2.50;;
20731;SDS011;10527;52.124;5.196;2022-08-24T00:57:12;3.38;;;3.08;;
20731;SDS011;10527;52.124;5.196;2022-08-24T00:59:48;3.17;;;2.50;;
20731;SDS011;10527;52.124;5.196;2022-08-24T01:02:22;2.90;;;2.30;;
20731;SDS011;10527;52.124;5.196;2022-08-24T01:04:57;3.38;;;2.20;;
20731;SDS011;10527;52.124;5.196;2022-08-24T01:07:31;3.67;;;2.58;;
20731;SDS011;10527;52.124;5.196;2022-08-24T01:10:05;3.55;;;2.58;;
20731;SDS011;10527;52.124;5.196;2022-08-24T01:12:37;3.17;;;2.42;;
20731;SDS011;10527;52.124;5.196;2022-08-24T01:15:26;2.30;;;1.80;;
20731;SDS011;10527;52.124;5.196;2022-08-24T01:17:59;2.83;;;2.10;;
20731;SDS011;10527;52.124;5.196;2022-08-24T01:20:48;2.80;;;2.30;;
20731;SDS011;10527;52.124;5.196;2022-08-24T01:24:00;2.75;;;2.28;;
20731;SDS011;10527;52.124;5.196;2022-08-24T01:26:35;3.42;;;2.45;;
20731;SDS011;10527;52.124;5.196;2022-08-24T01:29:10;2.70;;;2.30;;
20731;SDS011;10527;52.124;5.196;2022-08-24T01:31:44;2.70;;;2.30;;
20731;SDS011;10527;52.124;5.196;2022-08-24T01:34:11;2.85;;;2.50;;
20731;SDS011;10527;52.124;5.196;2022-08-24T01:36:56;3.70;;;2.28;;
20731;SDS011;10527;52.124;5.196;2022-08-24T01:39:29;5.28;;;2.67;;
20731;SDS011;10527;52.124;5.196;2022-08-24T01:42:08;3.58;;;2.40;;
20731;SDS011;10527;52.124;5.196;2022-08-24T01:44:37;3.13;;;2.70;;
20731;SDS011;10527;52.124;5.196;2022-08-24T01:47:07;3.72;;;2.53;;
20731;SDS011;10527;52.124;5.196;2022-08-24T01:49:40;3.13;;;2.47;;
20731;SDS011;10527;52.124;5.196;2022-08-24T01:52:11;2.30;;;2.08;;
20731;SDS011;10527;52.124;5.196;2022-08-24T01:54:44;3.20;;;2.25;;
20731;SDS011;10527;52.124;5.196;2022-08-24T01:57:11;3.15;;;2.55;;
20731;SDS011;10527;52.124;5.196;2022-08-24T01:59:43;2.53;;;2.17;;
20731;SDS011;10527;52.124;5.196;2022-08-24T02:02:17;2.75;;;2.03;;
20731;SDS011;10527;52.124;5.196;2022-08-24T02:04:49;2.85;;;2.50;;
20731;SDS011;10527;52.124;5.196;2022-08-24T02:07:16;3.25;;;2.58;;
20731;SDS011;10527;52.124;5.196;2022-08-24T02:09:44;6.47;;;2.50;;
20731;SDS011;10527;52.124;5.196;2022-08-24T02:12:12;3.63;;;2.03;;
20731;SDS011;10527;52.124;5.196;2022-08-24T02:14:40;2.50;;;2.22;;
20731;SDS011;10527;52.124;5.196;2022-08-24T02:17:07;3.05;;;2.33;;
20731;SDS011;10527;52.124;5.196;2022-08-24T02:19:34;4.50;;;2.00;;
20731;SDS011;10527;52.124;5.196;2022-08-24T02:22:02;3.53;;;2.53;;
20731;SDS011;10527;52.124;5.196;2022-08-24T02:24:31;2.95;;;2.72;;
20731;SDS011;10527;52.124;5.196;2022-08-24T02:26:59;2.88;;;2.47;;
20731;SDS011;10527;52.124;5.196;2022-08-24T02:29:32;3.97;;;3.35;;
20731;SDS011;10527;52.124;5.196;2022-08-24T02:32:01;3.50;;;2.83;;
20731;SDS011;10527;52.124;5.196;2022-08-24T02:34:28;2.72;;;2.40;;
20731;SDS011;10527;52.124;5.196;2022-08-24T02:36:55;3.05;;;2.35;;
20731;SDS011;10527;52.124;5.196;2022-08-24T02:39:22;3.03;;;2.35;;
20731;SDS011;10527;52.124;5.196;2022-08-24T02:41:50;3.35;;;2.22;;
20731;SDS011;10527;52.124;5.196;2022-08-24T02:44:17;3.85;;;2.42;;
20731;SDS011;10527;52.124;5.196;2022-08-24T02:46:45;2.65;;;2.42;;
20731;SDS011;10527;52.124;5.196;2022-08-24T02:49:12;3.47;;;2.80;;
20731;SDS011;10527;52.124;5.196;2022-08-24T02:51:40;5.50;;;2.35;;
20731;SDS011;10527;52.124;5.196;2022-08-24T02:54:11;2.78;;;2.50;;
20731;SDS011;10527;52.124;5.196;2022-08-24T02:56:43;3.78;;;2.67;;
20731;SDS011;10527;52.124;5.196;2022-08-24T02:59:12;4.93;;;2.78;;
20731;SDS011;10527;52.124;5.196;2022-08-24T03:01:40;3.40;;;2.85;;
20731;SDS011;10527;52.124;5.196;2022-08-24T03:04:08;3.10;;;2.80;;
20731;SDS011;10527;52.124;5.196;2022-08-24T03:06:35;5.35;;;3.13;;
20731;SDS011;10527;52.124;5.196;2022-08-24T03:09:02;4.20;;;2.40;;
20731;SDS011;10527;52.124;5.196;2022-08-24T03:11:30;4.78;;;3.50;;
20731;SDS011;10527;52.124;5.196;2022-08-24T03:13:56;3.10;;;2.75;;
20731;SDS011;10527;52.124;5.196;2022-08-24T03:16:25;3.20;;;2.50;;
20731;SDS011;10527;52.124;5.196;2022-08-24T03:18:55;5.72;;;2.70;;
20731;SDS011;10527;52.124;5.196;2022-08-24T03:21:23;3.72;;;2.90;;
20731;SDS011;10527;52.124;5.196;2022-08-24T03:23:50;3.22;;;2.88;;
20731;SDS011;10527;52.124;5.196;2022-08-24T03:26:20;3.60;;;3.15;;
20731;SDS011;10527;52.124;5.196;2022-08-24T03:28:48;3.78;;;3.10;;
20731;SDS011;10527;52.124;5.196;2022-08-24T03:31:17;4.28;;;3.13;;
20731;SDS011;10527;52.124;5.196;2022-08-24T03:33:44;3.60;;;2.55;;
20731;SDS011;10527;52.124;5.196;2022-08-24T03:36:11;5.20;;;2.70;;
20731;SDS011;10527;52.124;5.196;2022-08-24T03:38:39;3.03;;;2.67;;
20731;SDS011;10527;52.124;5.196;2022-08-24T03:41:07;4.03;;;2.90;;
20731;SDS011;10527;52.124;5.196;2022-08-24T03:43:36;3.92;;;3.40;;
20731;SDS011;10527;52.124;5.196;2022-08-24T03:46:12;3.90;;;3.50;;
20731;SDS011;10527;52.124;5.196;2022-08-24T03:48:47;3.88;;;3.47;;
20731;SDS011;10527;52.124;5.196;2022-08-24T03:51:16;3.92;;;3.53;;
20731;SDS011;10527;52.124;5.196;2022-08-24T03:53:48;3.50;;;3.15;;
20731;SDS011;10527;52.124;5.196;2022-08-24T03:56:17;4.13;;;3.05;;
20731;SDS011;10527;52.124;5.196;2022-08-24T03:58:45;4.82;;;3.28;;
20731;SDS011;10527;52.124;5.196;2022-08-24T04:01:12;3.55;;;2.72;;
20731;SDS011;10527;52.124;5.196;2022-08-24T04:03:43;4.43;;;3.47;;
20731;SDS011;10527;52.124;5.196;2022-08-24T04:06:14;5.30;;;3.42;;
20731;SDS011;10527;52.124;5.196;2022-08-24T04:08:44;5.55;;;3.63;;
20731;SDS011;10527;52.124;5.196;2022-08-24T04:11:32;4.53;;;3.78;;
20731;SDS011;10527;52.124;5.196;2022-08-24T04:14:04;4.60;;;3.00;;
20731;SDS011;10527;52.124;5.196;2022-08-24T04:16:45;3.53;;;3.03;;
20731;SDS011;10527;52.124;5.196;2022-08-24T04:19:22;3.95;;;3.28;;
20731;SDS011;10527;52.124;5.196;2022-08-24T04:21:49;3.35;;;3.05;;
20731;SDS011;10527;52.124;5.196;2022-08-24T04:24:16;3.88;;;2.92;;
20731;SDS011;10527;52.124;5.196;2022-08-24T04:26:44;3.03;;;2.78;;
20731;SDS011;10527;52.124;5.196;2022-08-24T04:29:12;3.03;;;2.72;;
20731;SDS011;10527;52.124;5.196;2022-08-24T04:31:42;4.22;;;2.80;;
20731;SDS011;10527;52.124;5.196;2022-08-24T04:34:13;3.50;;;3.20;;
20731;SDS011;10527;52.124;5.196;2022-08-24T04:36:43;4.10;;;3.20;;
20731;SDS011;10527;52.124;5.196;2022-08-24T04:39:11;5.30;;;3.15;;
20731;SDS011;10527;52.124;5.196;2022-08-24T04:41:38;4.40;;;3.20;;
20731;SDS011;10527;52.124;5.196;2022-08-24T04:44:07;3.92;;;3.30;;
20731;SDS011;10527;52.124;5.196;2022-08-24T04:46:34;4.25;;;3.28;;
20731;SDS011;10527;52.124;5.196;2022-08-24T04:49:01;3.42;;;2.92;;
20731;SDS011;10527;52.124;5.196;2022-08-24T04:51:29;3.78;;;2.83;;
20731;SDS011;10527;52.124;5.196;2022-08-24T04:54:02;3.90;;;3.50;;
20731;SDS011;10527;52.124;5.196;2022-08-24T04:56:31;3.88;;;3.28;;
20731;SDS011;10527;52.124;5.196;2022-08-24T04:58:58;5.63;;;3.92;;
20731;SDS011;10527;52.124;5.196;2022-08-24T05:01:25;5.45;;;4.03;;
20731;SDS011;10527;52.124;5.196;2022-08-24T05:03:58;4.55;;;3.25;;
20731;SDS011;10527;52.124;5.196;2022-08-24T05:06:26;4.18;;;3.15;;
20731;SDS011;10527;52.124;5.196;2022-08-24T05:08:55;4.78;;;3.72;;
20731;SDS011;10527;52.124;5.196;2022-08-24T05:11:23;4.15;;;3.35;;
20731;SDS011;10527;52.124;5.196;2022-08-24T05:13:52;4.88;;;4.07;;
20731;SDS011;10527;52.124;5.196;2022-08-24T05:16:20;4.22;;;3.83;;
20731;SDS011;10527;52.124;5.196;2022-08-24T05:18:50;4.22;;;3.50;;
20731;SDS011;10527;52.124;5.196;2022-08-24T05:21:20;4.95;;;3.75;;
20731;SDS011;10527;52.124;5.196;2022-08-24T05:23:50;3.83;;;3.20;;
20731;SDS011;10527;52.124;5.196;2022-08-24T05:26:21;4.18;;;3.50;;
20731;SDS011;10527;52.124;5.196;2022-08-24T05:28:54;5.35;;;4.28;;
20731;SDS011;10527;52.124;5.196;2022-08-24T05:31:25;5.90;;;4.22;;
20731;SDS011;10527;52.124;5.196;2022-08-24T05:33:56;5.95;;;3.78;;
20731;SDS011;10527;52.124;5.196;2022-08-24T05:36:27;4.35;;;3.95;;
20731;SDS011;10527;52.124;5.196;2022-08-24T05:38:58;5.22;;;4.28;;
20731;SDS011;10527;52.124;5.196;2022-08-24T05:41:28;3.83;;;3.45;;
20731;SDS011;10527;52.124;5.196;2022-08-24T05:43:56;4.38;;;3.40;;
20731;SDS011;10527;52.124;5.196;2022-08-24T05:46:23;5.35;;;3.80;;
20731;SDS011;10527;52.124;5.196;2022-08-24T05:48:50;5.55;;;3.65;;
20731;SDS011;10527;52.124;5.196;2022-08-24T05:51:18;4.07;;;3.53;;
20731;SDS011;10527;52.124;5.196;2022-08-24T05:53:46;4.43;;;3.53;;
20731;SDS011;10527;52.124;5.196;2022-08-24T05:56:15;4.07;;;3.67;;
20731;SDS011;10527;52.124;5.196;2022-08-24T05:58:44;4.13;;;3.55;;
20731;SDS011;10527;52.124;5.196;2022-08-24T06:01:13;5.13;;;3.35;;
20731;SDS011;10527;52.124;5.196;2022-08-24T06:03:44;4.13;;;3.10;;
20731;SDS011;10527;52.124;5.196;2022-08-24T06:06:11;4.38;;;3.33;;
20731;SDS011;10527;52.124;5.196;2022-08-24T06:08:40;3.25;;;2.92;;
20731;SDS011;10527;52.124;5.196;2022-08-24T06:11:18;3.10;;;2.60;;
20731;SDS011;10527;52.124;5.196;2022-08-24T06:14:00;4.15;;;2.47;;
20731;SDS011;10527;52.124;5.196;2022-08-24T06:16:33;4.22;;;3.78;;
20731;SDS011;10527;52.124;5.196;2022-08-24T06:19:02;6.85;;;5.63;;
20731;SDS011;10527;52.124;5.196;2022-08-24T06:21:30;5.80;;;4.78;;
20731;SDS011;10527;52.124;5.196;2022-08-24T06:23:58;6.53;;;5.60;;
20731;SDS011;10527;52.124;5.196;2022-08-24T06:26:26;8.05;;;7.25;;
20731;SDS011;10527;52.124;5.196;2022-08-24T06:29:16;7.85;;;6.47;;
20731;SDS011;10527;52.124;5.196;2022-08-24T06:31:45;7.50;;;6.63;;
20731;SDS011;10527;52.124;5.196;2022-08-24T06:34:20;6.45;;;5.57;;
20731;SDS011;10527;52.124;5.196;2022-08-24T06:36:48;9.43;;;7.18;;
20731;SDS011;10527;52.124;5.196;2022-08-24T06:39:16;6.88;;;5.97;;
20731;SDS011;10527;52.124;5.196;2022-08-24T06:41:43;11.23;;;6.90;;
20731;SDS011;10527;52.124;5.196;2022-08-24T06:44:11;15.23;;;13.57;;
20731;SDS011;10527;52.124;5.196;2022-08-24T06:46:38;11.57;;;9.38;;
20731;SDS011;10527;52.124;5.196;2022-08-24T06:49:05;12.52;;;10.32;;
20731;SDS011;10527;52.124;5.196;2022-08-24T06:51:32;10.07;;;8.50;;
20731;SDS011;10527;52.124;5.196;2022-08-24T06:53:59;8.77;;;7.95;;
20731;SDS011;10527;52.124;5.196;2022-08-24T06:56:26;10.52;;;8.68;;
20731;SDS011;10527;52.124;5.196;2022-08-24T06:58:53;11.10;;;8.40;;
20731;SDS011;10527;52.124;5.196;2022-08-24T07:01:21;12.18;;;8.13;;
20731;SDS011;10527;52.124;5.196;2022-08-24T07:03:51;9.40;;;7.93;;
20731;SDS011;10527;52.124;5.196;2022-08-24T07:06:18;11.48;;;8.60;;
20731;SDS011;10527;52.124;5.196;2022-08-24T07:08:47;8.82;;;7.85;;
20731;SDS011;10527;52.124;5.196;2022-08-24T07:11:15;11.77;;;8.43;;
20731;SDS011;10527;52.124;5.196;2022-08-24T07:13:44;9.65;;;8.05;;
20731;SDS011;10527;52.124;5.196;2022-08-24T07:16:13;7.80;;;7.00;;
20731;SDS011;10527;52.124;5.196;2022-08-24T07:18:42;8.07;;;7.28;;
20731;SDS011;10527;52.124;5.196;2022-08-24T07:21:15;9.75;;;7.50;;
20731;SDS011;10527;52.124;5.196;2022-08-24T07:23:45;8.27;;;7.45;;
20731;SDS011;10527;52.124;5.196;2022-08-24T07:26:16;9.85;;;7.70;;
20731;SDS011;10527;52.124;5.196;2022-08-24T07:28:50;9.73;;;6.60;;
20731;SDS011;10527;52.124;5.196;2022-08-24T07:31:19;10.50;;;7.07;;
20731;SDS011;10527;52.124;5.196;2022-08-24T07:33:46;9.32;;;7.38;;
20731;SDS011;10527;52.124;5.196;2022-08-24T07:36:13;12.02;;;7.40;;
20731;SDS011;10527;52.124;5.196;2022-08-24T07:38:48;7.82;;;7.03;;
20731;SDS011;10527;52.124;5.196;2022-08-24T07:41:19;8.18;;;7.13;;
20731;SDS011;10527;52.124;5.196;2022-08-24T07:44:09;11.00;;;7.47;;
20731;SDS011;10527;52.124;5.196;2022-08-24T07:46:38;8.05;;;6.65;;
20731;SDS011;10527;52.124;5.196;2022-08-24T07:49:08;6.10;;;5.50;;
20731;SDS011;10527;52.124;5.196;2022-08-24T07:51:59;9.38;;;6.45;;
20731;SDS011;10527;52.124;5.196;2022-08-24T07:54:26;9.82;;;5.97;;
20731;SDS011;10527;52.124;5.196;2022-08-24T07:56:54;11.35;;;6.78;;
20731;SDS011;10527;52.124;5.196;2022-08-24T07:59:23;9.13;;;6.28;;
20731;SDS011;10527;52.124;5.196;2022-08-24T08:01:50;8.75;;;6.82;;
20731;SDS011;10527;52.124;5.196;2022-08-24T08:04:19;9.52;;;5.97;;
20731;SDS011;10527;52.124;5.196;2022-08-24T08:06:49;7.07;;;6.38;;
20731;SDS011;10527;52.124;5.196;2022-08-24T08:09:17;8.65;;;6.53;;
20731;SDS011;10527;52.124;5.196;2022-08-24T08:11:44;11.27;;;7.05;;
20731;SDS011;10527;52.124;5.196;2022-08-24T08:14:11;17.02;;;7.65;;
20731;SDS011;10527;52.124;5.196;2022-08-24T08:16:40;8.88;;;4.78;;
20731;SDS011;10527;52.124;5.196;2022-08-24T08:19:07;9.18;;;4.60;;
20731;SDS011;10527;52.124;5.196;2022-08-24T08:21:44;4.30;;;3.38;;
20731;SDS011;10527;52.124;5.196;2022-08-24T08:24:35;3.53;;;3.03;;
20731;SDS011;10527;52.124;5.196;2022-08-24T08:27:04;5.22;;;4.20;;
20731;SDS011;10527;52.124;5.196;2022-08-24T08:29:32;6.10;;;3.95;;
20731;SDS011;10527;52.124;5.196;2022-08-24T08:32:00;4.95;;;4.05;;
20731;SDS011;10527;52.124;5.196;2022-08-24T08:34:28;5.70;;;4.68;;
20731;SDS011;10527;52.124;5.196;2022-08-24T08:36:56;6.40;;;4.10;;
20731;SDS011;10527;52.124;5.196;2022-08-24T08:39:24;7.05;;;4.40;;
20731;SDS011;10527;52.124;5.196;2022-08-24T08:45:06;5.85;;;3.83;;
20731;SDS011;10527;52.124;5.196;2022-08-24T08:54:13;5.40;;;3.70;;
20731;SDS011;10527;52.124;5.196;2022-08-24T09:00:48;4.32;;;2.80;;
20731;SDS011;10527;52.124;5.196;2022-08-24T09:07:01;5.80;;;3.63;;
20731;SDS011;10527;52.124;5.196;2022-08-24T09:22:20;6.05;;;3.35;;
20731;SDS011;10527;52.124;5.196;2022-08-24T09:35:18;4.03;;;2.45;;
20731;SDS011;10527;52.124;5.196;2022-08-24T09:38:03;3.05;;;1.65;;
20731;SDS011;10527;52.124;5.196;2022-08-24T09:47:18;3.08;;;1.20;;
20731;SDS011;10527;52.124;5.196;2022-08-24T10:03:00;2.28;;;1.05;;
20731;SDS011;10527;52.124;5.196;2022-08-24T10:09:10;2.60;;;1.60;;
20731;SDS011;10527;52.124;5.196;2022-08-24T10:18:03;1.30;;;0.90;;
20731;SDS011;10527;52.124;5.196;2022-08-24T10:27:49;3.40;;;1.08;;
20731;SDS011;10527;52.124;5.196;2022-08-24T10:37:15;1.75;;;1.05;;
20731;SDS011;10527;52.124;5.196;2022-08-24T10:43:50;1.35;;;1.00;;
20731;SDS011;10527;52.124;5.196;2022-08-24T10:46:49;1.80;;;1.00;;
20731;SDS011;10527;52.124;5.196;2022-08-24T10:52:45;2.35;;;1.13;;
20731;SDS011;10527;52.124;5.196;2022-08-24T10:55:37;1.60;;;0.60;;
20731;SDS011;10527;52.124;5.196;2022-08-24T11:01:15;2.20;;;0.95;;
20731;SDS011;10527;52.124;5.196;2022-08-24T11:06:39;0.75;;;0.63;;
20731;SDS011;10527;52.124;5.196;2022-08-24T11:09:41;0.85;;;0.60;;
20731;SDS011;10527;52.124;5.196;2022-08-24T11:12:20;1.00;;;0.70;;
20731;SDS011;10527;52.124;5.196;2022-08-24T11:15:09;2.25;;;0.60;;
20731;SDS011;10527;52.124;5.196;2022-08-24T11:18:02;1.85;;;0.52;;
20731;SDS011;10527;52.124;5.196;2022-08-24T11:23:19;0.95;;;0.70;;
20731;SDS011;10527;52.124;5.196;2022-08-24T11:26:03;1.02;;;0.60;;
20731;SDS011;10527;52.124;5.196;2022-08-24T11:28:39;0.93;;;0.65;;
20731;SDS011;10527;52.124;5.196;2022-08-24T11:31:34;0.73;;;0.57;;
20731;SDS011;10527;52.124;5.196;2022-08-24T11:34:12;0.70;;;0.60;;
20731;SDS011;10527;52.124;5.196;2022-08-24T11:36:43;5.15;;;0.73;;
20731;SDS011;10527;52.124;5.196;2022-08-24T11:39:12;1.52;;;0.85;;
20731;SDS011;10527;52.124;5.196;2022-08-24T11:41:58;2.35;;;0.90;;
20731;SDS011;10527;52.124;5.196;2022-08-24T11:50:40;0.88;;;0.70;;
20731;SDS011;10527;52.124;5.196;2022-08-24T11:53:31;2.63;;;0.80;;
20731;SDS011;10527;52.124;5.196;2022-08-24T11:56:24;2.45;;;1.30;;
20731;SDS011;10527;52.124;5.196;2022-08-24T11:59:00;1.45;;;0.82;;
20731;SDS011;10527;52.124;5.196;2022-08-24T12:02:18;1.35;;;0.65;;
20731;SDS011;10527;52.124;5.196;2022-08-24T12:05:05;1.02;;;0.70;;
20731;SDS011;10527;52.124;5.196;2022-08-24T12:10:41;2.78;;;0.50;;
20731;SDS011;10527;52.124;5.196;2022-08-24T12:13:32;1.08;;;0.60;;
20731;SDS011;10527;52.124;5.196;2022-08-24T12:16:19;3.03;;;0.60;;
20731;SDS011;10527;52.124;5.196;2022-08-24T12:19:23;0.82;;;0.55;;
20731;SDS011;10527;52.124;5.196;2022-08-24T12:22:01;0.60;;;0.40;;
20731;SDS011;10527;52.124;5.196;2022-08-24T12:24:34;1.08;;;0.60;;
20731;SDS011;10527;52.124;5.196;2022-08-24T12:27:15;0.98;;;0.57;;
20731;SDS011;10527;52.124;5.196;2022-08-24T12:29:52;1.70;;;0.60;;
20731;SDS011;10527;52.124;5.196;2022-08-24T12:32:39;2.35;;;0.60;;
20731;SDS011;10527;52.124;5.196;2022-08-24T12:35:34;1.33;;;0.45;;
20731;SDS011;10527;52.124;5.196;2022-08-24T12:38:26;2.42;;;0.60;;
20731;SDS011;10527;52.124;5.196;2022-08-24T12:41:35;1.92;;;1.20;;
20731;SDS011;10527;52.124;5.196;2022-08-24T12:44:14;0.50;;;0.50;;
20731;SDS011;10527;52.124;5.196;2022-08-24T12:46:42;0.70;;;0.60;;
20731;SDS011;10527;52.124;5.196;2022-08-24T13:01:45;4.43;;;0.60;;
20731;SDS011;10527;52.124;5.196;2022-08-24T13:04:36;1.27;;;0.70;;
20731;SDS011;10527;52.124;5.196;2022-08-24T13:33:26;0.65;;;0.45;;
20731;SDS011;10527;52.124;5.196;2022-08-24T13:36:04;0.63;;;0.47;;
20731;SDS011;10527;52.124;5.196;2022-08-24T13:42:17;0.70;;;0.57;;
20731;SDS011;10527;52.124;5.196;2022-08-24T13:53:56;1.15;;;0.75;;
20731;SDS011;10527;52.124;5.196;2022-08-24T13:56:56;1.23;;;0.50;;
20731;SDS011;10527;52.124;5.196;2022-08-24T14:05:34;1.08;;;0.70;;
20731;SDS011;10527;52.124;5.196;2022-08-24T14:11:11;1.55;;;1.20;;
20731;SDS011;10527;52.124;5.196;2022-08-24T14:17:14;1.98;;;0.70;;
20731;SDS011;10527;52.124;5.196;2022-08-24T14:20:13;2.83;;;0.65;;
20731;SDS011;10527;52.124;5.196;2022-08-24T14:29:47;0.98;;;0.70;;
20731;SDS011;10527;52.124;5.196;2022-08-24T14:34:42;1.80;;;0.77;;
20731;SDS011;10527;52.124;5.196;2022-08-24T14:40:35;1.25;;;0.70;;
20731;SDS011;10527;52.124;5.196;2022-08-24T14:48:33;1.20;;;0.52;;
20731;SDS011;10527;52.124;5.196;2022-08-24T14:54:40;0.85;;;0.70;;
20731;SDS011;10527;52.124;5.196;2022-08-24T15:07:25;2.70;;;1.00;;
20731;SDS011;10527;52.124;5.196;2022-08-24T15:09:57;0.85;;;0.70;;
20731;SDS011;10527;52.124;5.196;2022-08-24T15:12:28;1.92;;;0.77;;
20731;SDS011;10527;52.124;5.196;2022-08-24T15:15:12;2.60;;;0.70;;
20731;SDS011;10527;52.124;5.196;2022-08-24T15:17:42;2.03;;;0.65;;
20731;SDS011;10527;52.124;5.196;2022-08-24T15:26:40;2.28;;;0.90;;
20731;SDS011;10527;52.124;5.196;2022-08-24T15:29:13;3.22;;;1.48;;
20731;SDS011;10527;52.124;5.196;2022-08-24T15:31:54;0.70;;;0.70;;
20731;SDS011;10527;52.124;5.196;2022-08-24T15:34:54;2.00;;;0.88;;
20731;SDS011;10527;52.124;5.196;2022-08-24T15:43:57;2.10;;;0.80;;
20731;SDS011;10527;52.124;5.196;2022-08-24T15:46:31;1.58;;;0.60;;
20731;SDS011;10527;52.124;5.196;2022-08-24T15:49:15;1.20;;;0.60;;
20731;SDS011;10527;52.124;5.196;2022-08-24T15:51:55;1.83;;;0.80;;
20731;SDS011;10527;52.124;5.196;2022-08-24T15:55:01;3.20;;;0.98;;
20731;SDS011;10527;52.124;5.196;2022-08-24T15:57:38;2.50;;;0.80;;
20731;SDS011;10527;52.124;5.196;2022-08-24T16:06:18;1.77;;;0.60;;
20731;SDS011;10527;52.124;5.196;2022-08-24T16:14:46;1.70;;;0.68;;
20731;SDS011;10527;52.124;5.196;2022-08-24T16:17:49;1.27;;;0.60;;
20731;SDS011;10527;52.124;5.196;2022-08-24T16:20:32;1.80;;;0.90;;
20731;SDS011;10527;52.124;5.196;2022-08-24T16:23:02;1.17;;;0.90;;
20731;SDS011;10527;52.124;5.196;2022-08-24T16:26:50;1.80;;;0.52;;
20731;SDS011;10527;52.124;5.196;2022-08-24T16:28:50;0.70;;;0.70;;
20731;SDS011;10527;52.124;5.196;2022-08-24T16:34:16;1.25;;;0.80;;
20731;SDS011;10527;52.124;5.196;2022-08-24T16:36:54;1.08;;;0.80;;
20731;SDS011;10527;52.124;5.196;2022-08-24T16:39:25;2.45;;;1.17;;
20731;SDS011;10527;52.124;5.196;2022-08-24T16:41:56;2.40;;;0.80;;
20731;SDS011;10527;52.124;5.196;2022-08-24T16:44:34;2.30;;;0.88;;
20731;SDS011;10527;52.124;5.196;2022-08-24T16:47:09;1.10;;;0.80;;
20731;SDS011;10527;52.124;5.196;2022-08-24T16:49:39;1.95;;;0.80;;
20731;SDS011;10527;52.124;5.196;2022-08-24T16:52:06;0.70;;;0.70;;
20731;SDS011;10527;52.124;5.196;2022-08-24T16:54:33;2.08;;;0.95;;
20731;SDS011;10527;52.124;5.196;2022-08-24T16:57:02;1.00;;;0.90;;
20731;SDS011;10527;52.124;5.196;2022-08-24T16:59:43;1.30;;;0.85;;
20731;SDS011;10527;52.124;5.196;2022-08-24T17:02:14;4.28;;;1.60;;
20731;SDS011;10527;52.124;5.196;2022-08-24T17:04:44;1.20;;;0.82;;
20731;SDS011;10527;52.124;5.196;2022-08-24T17:07:12;2.88;;;1.15;;
20731;SDS011;10527;52.124;5.196;2022-08-24T17:09:44;2.10;;;0.90;;
20731;SDS011;10527;52.124;5.196;2022-08-24T17:12:14;2.08;;;0.90;;
20731;SDS011;10527;52.124;5.196;2022-08-24T17:14:43;1.80;;;0.85;;
20731;SDS011;10527;52.124;5.196;2022-08-24T17:17:11;0.75;;;0.60;;
20731;SDS011;10527;52.124;5.196;2022-08-24T17:19:51;1.73;;;0.80;;
20731;SDS011;10527;52.124;5.196;2022-08-24T17:22:23;1.77;;;0.70;;
20731;SDS011;10527;52.124;5.196;2022-08-24T17:24:53;3.10;;;0.90;;
20731;SDS011;10527;52.124;5.196;2022-08-24T17:27:21;2.70;;;0.88;;
20731;SDS011;10527;52.124;5.196;2022-08-24T17:29:58;1.90;;;1.20;;
20731;SDS011;10527;52.124;5.196;2022-08-24T17:32:48;2.20;;;1.45;;
20731;SDS011;10527;52.124;5.196;2022-08-24T17:35:18;1.42;;;1.10;;
20731;SDS011;10527;52.124;5.196;2022-08-24T17:37:49;1.85;;;1.00;;
20731;SDS011;10527;52.124;5.196;2022-08-24T17:40:22;3.38;;;1.35;;
20731;SDS011;10527;52.124;5.196;2022-08-24T17:42:52;2.88;;;1.55;;
20731;SDS011;10527;52.124;5.196;2022-08-24T17:45:19;2.42;;;1.23;;
20731;SDS011;10527;52.124;5.196;2022-08-24T17:47:48;2.03;;;0.75;;
20731;SDS011;10527;52.124;5.196;2022-08-24T17:50:17;1.40;;;0.77;;
20731;SDS011;10527;52.124;5.196;2022-08-24T17:52:46;1.65;;;0.70;;
20731;SDS011;10527;52.124;5.196;2022-08-24T17:55:15;2.13;;;1.40;;
20731;SDS011;10527;52.124;5.196;2022-08-24T17:57:50;1.52;;;0.82;;
20731;SDS011;10527;52.124;5.196;2022-08-24T18:00:17;1.17;;;0.70;;
20731;SDS011;10527;52.124;5.196;2022-08-24T18:02:44;1.98;;;0.73;;
20731;SDS011;10527;52.124;5.196;2022-08-24T18:05:11;1.15;;;0.80;;
20731;SDS011;10527;52.124;5.196;2022-08-24T18:07:41;1.17;;;0.80;;
20731;SDS011;10527;52.124;5.196;2022-08-24T18:10:29;1.40;;;0.60;;
20731;SDS011;10527;52.124;5.196;2022-08-24T18:12:59;0.60;;;0.57;;
20731;SDS011;10527;52.124;5.196;2022-08-24T18:15:32;1.10;;;0.90;;
20731;SDS011;10527;52.124;5.196;2022-08-24T18:18:03;1.67;;;0.80;;
20731;SDS011;10527;52.124;5.196;2022-08-24T18:20:37;2.80;;;1.77;;
20731;SDS011;10527;52.124;5.196;2022-08-24T18:23:06;2.10;;;1.20;;
20731;SDS011;10527;52.124;5.196;2022-08-24T18:25:40;1.88;;;1.00;;
20731;SDS011;10527;52.124;5.196;2022-08-24T18:28:14;0.80;;;0.80;;
20731;SDS011;10527;52.124;5.196;2022-08-24T18:30:46;1.10;;;0.90;;
20731;SDS011;10527;52.124;5.196;2022-08-24T18:33:13;1.05;;;0.77;;
20731;SDS011;10527;52.124;5.196;2022-08-24T18:35:40;1.02;;;0.70;;
20731;SDS011;10527;52.124;5.196;2022-08-24T18:38:07;1.27;;;0.73;;
20731;SDS011;10527;52.124;5.196;2022-08-24T18:40:34;1.05;;;0.70;;
20731;SDS011;10527;52.124;5.196;2022-08-24T18:43:01;1.27;;;0.80;;
20731;SDS011;10527;52.124;5.196;2022-08-24T18:45:30;2.88;;;0.73;;
20731;SDS011;10527;52.124;5.196;2022-08-24T18:47:59;1.25;;;0.73;;
20731;SDS011;10527;52.124;5.196;2022-08-24T18:50:27;1.08;;;0.98;;
20731;SDS011;10527;52.124;5.196;2022-08-24T18:52:54;1.63;;;0.82;;
20731;SDS011;10527;52.124;5.196;2022-08-24T18:55:24;1.45;;;1.00;;
20731;SDS011;10527;52.124;5.196;2022-08-24T18:57:52;1.48;;;1.00;;
20731;SDS011;10527;52.124;5.196;2022-08-24T19:00:21;1.77;;;0.80;;
20731;SDS011;10527;52.124;5.196;2022-08-24T19:02:51;1.30;;;1.00;;
20731;SDS011;10527;52.124;5.196;2022-08-24T19:05:21;2.53;;;0.90;;
20731;SDS011;10527;52.124;5.196;2022-08-24T19:07:50;1.35;;;1.02;;
20731;SDS011;10527;52.124;5.196;2022-08-24T19:10:20;2.15;;;0.93;;
20731;SDS011;10527;52.124;5.196;2022-08-24T19:12:57;3.05;;;1.00;;
20731;SDS011;10527;52.124;5.196;2022-08-24T19:15:29;1.38;;;1.00;;
20731;SDS011;10527;52.124;5.196;2022-08-24T19:18:05;0.95;;;0.95;;
20731;SDS011;10527;52.124;5.196;2022-08-24T19:20:40;2.80;;;1.10;;